Queen Of Cowichan — CZ4990 — position and weather

sailwx.info

Track history (hours):
 
Tides and Currents Weather Stations Pressure Air Temp Water Temp Dewpoint Dewpoint Depression Visibility Wind Speed Wind Dir Waves Ship Positions

Queen Of Cowichan

Last reported at 2017-Jun-28 19:24 UTC. Time now 2017-Jun-28 19:32 UTC.
Position N 49°23' W 123°16'.

Length 139 m.

Type: Passenger vessel. MMSI: 316001251.

Date/timePositionNaut miles runAvg speedWind from/ knotsBaromVisibWave heightAir tempDewpointWater temp
2017-Jun-28 19:24N 49°23' W 123°16'616.3
2017-Jun-28 19:00N 49°19' W 123°24'1020.5
2017-Jun-28 18:30N 49°16' W 123°39'12 9.5
2017-Jun-28 17:11N 49°12' W 123°57'718.7
2017-Jun-28 16:50N 49°15' W 123°48'619.4
2017-Jun-28 16:30N 49°17' W 123°39'1020.2
2017-Jun-28 16:01N 49°19' W 123°24'6 6.0
2017-Jun-28 15:03N 49°23' W 123°16'0 2.9
2017-Jun-28 15:00N 49°23' W 123°16'1817.9
2017-Jun-28 14:00N 49°15' W 123°41'1020.6
2017-Jun-28 13:30N 49°12' W 123°56'1 0.1
2017-Jun-28 06:15N 49°12' W 123°57'518.4
2017-Jun-28 05:57N 49°15' W 123°50'919.8
2017-Jun-28 05:30N 49°17' W 123°37'1020.6
2017-Jun-28 05:00N 49°20' W 123°21'4 8.7
2017-Jun-28 04:30N 49°23' W 123°16'4 7.5
2017-Jun-28 04:01N 49°20' W 123°21'1020.1
2017-Jun-28 03:30N 49°17' W 123°35'13 8.5
2017-Jun-28 02:00N 49°13' W 123°54'1019.6
2017-Jun-28 01:29N 49°17' W 123°39'1020.2
2017-Jun-28 01:00N 49°19' W 123°25'7 5.9
2017-Jun-27 23:51N 49°23' W 123°16'412.6
2017-Jun-27 23:31N 49°20' W 123°21'1020.3
2017-Jun-27 23:00N 49°17' W 123°36'15 9.9
2017-Jun-27 21:30N 49°12' W 123°57'1018.9
2017-Jun-27 20:59N 49°16' W 123°44'919.8
2017-Jun-27 20:31N 49°18' W 123°30'1019.1
2017-Jun-27 20:00N 49°23' W 123°17'1 0.8
2017-Jun-27 19:16N 49°23' W 123°16'517.7
2017-Jun-27 19:00N 49°20' W 123°21'1020.3
2017-Jun-27 18:30N 49°16' W 123°36'8 4.8
2017-Jun-27 16:46N 49°15' W 123°48'518.6
2017-Jun-27 16:30N 49°16' W 123°41'1020.0
2017-Jun-27 16:00N 49°19' W 123°27'8 7.2
2017-Jun-27 14:57N 49°23' W 123°16'1616.9
2017-Jun-27 14:00N 49°16' W 123°38'13 2.2
2017-Jun-27 07:53N 49°12' W 123°57'0 0.2
2017-Jun-27 06:18N 49°12' W 123°57'518.0
2017-Jun-27 06:00N 49°14' W 123°50'918.9
2017-Jun-27 05:30N 49°17' W 123°36'1020.0
2017-Jun-27 05:01N 49°20' W 123°22'5 5.9
2017-Jun-27 04:15N 49°23' W 123°16'2 8.5
2017-Jun-27 04:00N 49°22' W 123°19'1019.2
2017-Jun-27 03:30N 49°17' W 123°32'1620.8
2017-Jun-27 02:45N 49°13' W 123°55'1 1.4
2017-Jun-27 01:51N 49°14' W 123°53'719.5
2017-Jun-27 01:30N 49°16' W 123°44'1019.8
2017-Jun-27 01:00N 49°19' W 123°29'917.7
2017-Jun-27 00:30N 49°23' W 123°17'1 1.6
2017-Jun-26 23:59N 49°23' W 123°16'4 9.5
2017-Jun-26 23:30N 49°20' W 123°21'1020.3
2017-Jun-26 23:01N 49°16' W 123°36'14 9.8
2017-Jun-26 21:32N 49°12' W 123°57'117.8
2017-Jun-26 21:28N 49°13' W 123°56'919.4
2017-Jun-26 21:00N 49°16' W 123°43'1019.7
2017-Jun-26 20:31N 49°18' W 123°28'918.1
2017-Jun-26 20:00N 49°23' W 123°17'1 1.1
2017-Jun-26 19:27N 49°23' W 123°16'4 9.5
2017-Jun-26 19:00N 49°19' W 123°21'1020.4
2017-Jun-26 18:30N 49°16' W 123°36'1121.1
2017-Jun-26 17:57N 49°13' W 123°53'4 5.3
2017-Jun-26 17:17N 49°12' W 123°57'310.1
2017-Jun-26 16:59N 49°13' W 123°54'919.2
2017-Jun-26 16:30N 49°17' W 123°41'1019.8
2017-Jun-26 16:00N 49°19' W 123°26'710.3
2017-Jun-26 15:19N 49°23' W 123°16'0 0.7
2017-Jun-26 15:00N 49°23' W 123°16'917.8
2017-Jun-26 14:30N 49°18' W 123°27'20 2.5
2017-Jun-26 06:16N 49°12' W 123°57'617.9
2017-Jun-26 05:56N 49°15' W 123°49'919.9
2017-Jun-26 05:30N 49°17' W 123°37'1019.8
2017-Jun-26 05:00N 49°20' W 123°22'5 9.5
2017-Jun-26 04:30N 49°23' W 123°16'2 5.1
2017-Jun-26 04:00N 49°21' W 123°20'1019.9
2017-Jun-26 03:30N 49°17' W 123°33'1420.7
2017-Jun-26 02:50N 49°13' W 123°54'3 3.4
2017-Jun-26 02:01N 49°12' W 123°57'0 2.2
2017-Jun-26 02:00N 49°12' W 123°57'917.7
2017-Jun-26 01:30N 49°16' W 123°45'1019.5
2017-Jun-26 01:00N 49°18' W 123°31'918.3
2017-Jun-26 00:30N 49°22' W 123°19'2 2.3
2017-Jun-25 23:46N 49°23' W 123°16'416.4
2017-Jun-25 23:30N 49°20' W 123°21'1020.2
2017-Jun-25 23:00N 49°16' W 123°35'15 9.9
2017-Jun-25 21:29N 49°12' W 123°57'918.8
2017-Jun-25 21:00N 49°16' W 123°45'1019.7
2017-Jun-25 20:30N 49°19' W 123°30'918.9
2017-Jun-25 20:00N 49°23' W 123°18'1 1.7
2017-Jun-25 19:28N 49°23' W 123°16'4 8.3
2017-Jun-25 19:00N 49°20' W 123°21'1020.5
2017-Jun-25 18:30N 49°16' W 123°35'1121.2
2017-Jun-25 18:00N 49°14' W 123°51'4 4.7
2017-Jun-25 17:07N 49°12' W 123°57'318.3
2017-Jun-25 16:57N 49°13' W 123°54'919.2
2017-Jun-25 16:30N 49°17' W 123°41'1019.5
2017-Jun-25 16:00N 49°19' W 123°27'812.2
2017-Jun-25 15:22N 49°23' W 123°16'0 0.0
2017-Jun-25 15:01N 49°23' W 123°16'612.2
2017-Jun-25 14:31N 49°19' W 123°24'2221.0
2017-Jun-25 13:29N 49°13' W 123°56'1 0.2
2017-Jun-25 06:25N 49°12' W 123°57'717.7
2017-Jun-25 06:00N 49°15' W 123°47'1019.6
2017-Jun-25 05:30N 49°18' W 123°33'1019.8
2017-Jun-25 05:00N 49°22' W 123°19'2 2.9
2017-Jun-25 04:22N 49°23' W 123°16'514.3
2017-Jun-25 04:00N 49°19' W 123°22'1020.5
2017-Jun-25 03:30N 49°16' W 123°37'9 5.7
2017-Jun-25 01:53N 49°14' W 123°51'719.1
2017-Jun-25 01:30N 49°17' W 123°41'1020.2
2017-Jun-25 01:00N 49°19' W 123°25'7 7.1
2017-Jun-24 23:59N 49°23' W 123°16'918.2
2017-Jun-24 23:30N 49°18' W 123°28'1020.1
2017-Jun-24 23:00N 49°16' W 123°42'10 8.3
2017-Jun-24 21:46N 49°12' W 123°57'519.5
2017-Jun-24 21:29N 49°14' W 123°50'919.7
2017-Jun-24 21:00N 49°17' W 123°36'1020.3
2017-Jun-24 20:30N 49°20' W 123°21'4 7.7
2017-Jun-24 19:59N 49°23' W 123°16'0 0.0
2017-Jun-24 19:25N 49°23' W 123°16'614.9
2017-Jun-24 19:01N 49°19' W 123°24'1020.1
2017-Jun-24 18:30N 49°15' W 123°38'1020.9
2017-Jun-24 18:00N 49°12' W 123°53'3 2.9
2017-Jun-24 17:06N 49°12' W 123°57'214.0
2017-Jun-24 16:59N 49°13' W 123°55'919.2
2017-Jun-24 16:30N 49°16' W 123°42'1019.8
2017-Jun-24 16:00N 49°19' W 123°28'816.4
2017-Jun-24 15:30N 49°23' W 123°16'0 0.0
2017-Jun-24 14:56N 49°23' W 123°16'1617.1
2017-Jun-24 14:00N 49°16' W 123°38'1121.0
2017-Jun-24 13:29N 49°13' W 123°55'2 0.3
2017-Jun-24 06:34N 49°12' W 123°57'0 4.2
2017-Jun-24 06:28N 49°12' W 123°57'818.5
2017-Jun-24 06:00N 49°16' W 123°46'1019.4
2017-Jun-24 05:30N 49°18' W 123°31'1019.7
2017-Jun-24 05:00N 49°23' W 123°18'1 1.7
2017-Jun-24 04:28N 49°23' W 123°16'714.5
2017-Jun-24 04:00N 49°19' W 123°24'1020.6
2017-Jun-24 03:30N 49°15' W 123°39'1121.1
2017-Jun-24 02:59N 49°13' W 123°56'1 2.5
2017-Jun-24 02:24N 49°12' W 123°57'614.9
2017-Jun-24 01:59N 49°15' W 123°49'918.8
2017-Jun-24 01:30N 49°18' W 123°36'1019.9
2017-Jun-24 01:00N 49°20' W 123°21'4 7.6
2017-Jun-24 00:27N 49°23' W 123°16'0 0.8
2017-Jun-23 23:59N 49°23' W 123°16'817.5
2017-Jun-23 23:30N 49°17' W 123°26'1020.3
2017-Jun-23 23:00N 49°15' W 123°41'1020.6
2017-Jun-23 22:30N 49°12' W 123°56'1 0.7
2017-Jun-23 21:37N 49°12' W 123°57'221.4
2017-Jun-23 21:30N 49°13' W 123°54'918.4
2017-Jun-23 21:00N 49°17' W 123°41'1020.2
2017-Jun-23 20:30N 49°19' W 123°26'7 8.6
2017-Jun-23 19:39N 49°23' W 123°16'0 0.0
2017-Jun-23 19:29N 49°23' W 123°16'510.7
2017-Jun-23 19:00N 49°19' W 123°22'1020.2
2017-Jun-23 18:31N 49°16' W 123°37'1411.1
2017-Jun-23 17:14N 49°12' W 123°57'513.2
2017-Jun-23 16:52N 49°14' W 123°51'718.8
2017-Jun-23 16:30N 49°16' W 123°41'1019.9
2017-Jun-23 16:00N 49°19' W 123°26'710.9
2017-Jun-23 15:19N 49°23' W 123°16'0 0.0
2017-Jun-23 15:00N 49°23' W 123°16'1717.1
2017-Jun-23 14:00N 49°15' W 123°40'12 1.5
2017-Jun-23 06:15N 49°12' W 123°57'514.2
2017-Jun-23 05:54N 49°14' W 123°50'719.3
2017-Jun-23 05:31N 49°17' W 123°40'1020.4
2017-Jun-23 05:00N 49°19' W 123°25'612.1
2017-Jun-23 04:29N 49°23' W 123°16'2 4.4
2017-Jun-23 04:00N 49°22' W 123°19'1019.7
2017-Jun-23 03:31N 49°17' W 123°32'1120.8
2017-Jun-23 02:59N 49°14' W 123°49'6 6.8
2017-Jun-23 02:05N 49°12' W 123°57'315.9
2017-Jun-23 01:53N 49°13' W 123°54'719.0
2017-Jun-23 01:30N 49°16' W 123°43'1019.7
2017-Jun-23 01:00N 49°19' W 123°29'918.0
2017-Jun-23 00:30N 49°23' W 123°16'0 0.1
2017-Jun-22 23:50N 49°23' W 123°16'617.2
2017-Jun-22 23:30N 49°19' W 123°23'1020.5
2017-Jun-22 23:00N 49°16' W 123°37'1120.9
2017-Jun-22 22:30N 49°13' W 123°53'3 3.8
2017-Jun-22 21:40N 49°12' W 123°57'616.5
2017-Jun-22 21:19N 49°14' W 123°49'619.2
2017-Jun-22 21:00N 49°16' W 123°41'1020.4
2017-Jun-22 20:30N 49°19' W 123°26'714.2
2017-Jun-22 20:00N 49°23' W 123°16'0 0.5
2017-Jun-22 19:26N 49°23' W 123°16'717.2
2017-Jun-22 19:00N 49°19' W 123°25'1020.8
2017-Jun-22 18:30N 49°15' W 123°40'1020.6
2017-Jun-22 18:00N 49°13' W 123°56'1 1.4
2017-Jun-22 17:06N 49°12' W 123°57'219.5
2017-Jun-22 16:58N 49°13' W 123°54'818.2
2017-Jun-22 16:30N 49°16' W 123°42'1020.0
2017-Jun-22 16:00N 49°19' W 123°27'8 7.3
2017-Jun-22 14:53N 49°23' W 123°16'616.9
2017-Jun-22 14:30N 49°19' W 123°24'23 6.6
2017-Jun-22 11:01N 49°12' W 123°57'1 0.1
2017-Jun-22 06:08N 49°12' W 123°57'319.1
2017-Jun-22 05:59N 49°13' W 123°53'919.1
2017-Jun-22 05:30N 49°17' W 123°40'1020.1
2017-Jun-22 05:00N 49°19' W 123°26'7 7.9
2017-Jun-22 04:07N 49°23' W 123°16'110.9
2017-Jun-22 04:00N 49°23' W 123°18'1019.9
2017-Jun-22 03:30N 49°17' W 123°31'1121.2
2017-Jun-22 02:58N 49°14' W 123°48'2 1.5
2017-Jun-22 01:34N 49°15' W 123°45'118.5
2017-Jun-22 01:30N 49°16' W 123°43'1019.5
2017-Jun-22 01:00N 49°19' W 123°29'9 8.2
2017-Jun-21 23:52N 49°23' W 123°16'615.9
2017-Jun-21 23:30N 49°19' W 123°23'1020.7
2017-Jun-21 23:00N 49°15' W 123°38'1120.9
2017-Jun-21 22:30N 49°13' W 123°54'2 2.3
2017-Jun-21 21:28N 49°12' W 123°57'919.2
2017-Jun-21 21:00N 49°16' W 123°44'1019.5
2017-Jun-21 20:31N 49°18' W 123°30'918.5
2017-Jun-21 20:00N 49°23' W 123°18'1 1.2
2017-Jun-21 19:15N 49°23' W 123°16'416.2
2017-Jun-21 19:00N 49°20' W 123°21'1020.7
2017-Jun-21 18:30N 49°16' W 123°35'1510.5
2017-Jun-21 17:05N 49°12' W 123°57'518.8
2017-Jun-21 16:49N 49°14' W 123°50'619.2
2017-Jun-21 16:31N 49°16' W 123°41'1019.8
2017-Jun-21 16:00N 49°19' W 123°27'8 7.4
2017-Jun-21 14:56N 49°23' W 123°16'715.2
2017-Jun-21 14:30N 49°18' W 123°24'23 6.6
2017-Jun-21 11:03N 49°12' W 123°57'1 0.3
2017-Jun-21 05:59N 49°12' W 123°56'919.5
2017-Jun-21 05:30N 49°16' W 123°43'1020.3
2017-Jun-21 05:00N 49°19' W 123°27'816.5
2017-Jun-21 04:30N 49°23' W 123°16'1 1.4
2017-Jun-21 04:00N 49°23' W 123°17'1019.6
2017-Jun-21 03:31N 49°17' W 123°29'1020.7
2017-Jun-21 03:00N 49°14' W 123°44'911.6
2017-Jun-21 02:14N 49°12' W 123°57'0 0.2
2017-Jun-21 01:56N 49°12' W 123°57'818.1
2017-Jun-21 01:31N 49°15' W 123°47'1020.1
2017-Jun-21 01:00N 49°18' W 123°32'918.7
2017-Jun-21 00:31N 49°22' W 123°19'2 3.6
2017-Jun-21 00:00N 49°23' W 123°16'3 6.5
2017-Jun-20 23:30N 49°21' W 123°20'1020.5
2017-Jun-20 23:00N 49°16' W 123°34'1020.8
2017-Jun-20 22:30N 49°14' W 123°50'5 5.4
2017-Jun-20 21:31N 49°12' W 123°57'215.1
2017-Jun-20 21:23N 49°13' W 123°55'819.6
2017-Jun-20 21:00N 49°16' W 123°44'1019.9
2017-Jun-20 20:31N 49°18' W 123°30'918.7
2017-Jun-20 20:00N 49°23' W 123°17'1 0.7
2017-Jun-20 19:14N 49°23' W 123°16'416.2
2017-Jun-20 19:01N 49°20' W 123°21'1020.0
2017-Jun-20 18:30N 49°16' W 123°35'1611.0
2017-Jun-20 17:05N 49°12' W 123°57'212.8
2017-Jun-20 16:57N 49°13' W 123°55'920.3
2017-Jun-20 16:30N 49°16' W 123°42'1020.4
2017-Jun-20 16:00N 49°19' W 123°27'8 7.6
2017-Jun-20 14:55N 49°23' W 123°16'716.3
2017-Jun-20 14:31N 49°19' W 123°24'21 2.4
2017-Jun-20 05:55N 49°13' W 123°55'820.4
2017-Jun-20 05:31N 49°16' W 123°43'1020.5
2017-Jun-20 05:00N 49°19' W 123°28'814.7
2017-Jun-20 04:26N 49°23' W 123°16'1 2.4
2017-Jun-20 04:00N 49°23' W 123°18'1019.3
2017-Jun-20 03:30N 49°18' W 123°30'1120.7
2017-Jun-20 02:59N 49°14' W 123°45'8 9.1
2017-Jun-20 02:05N 49°12' W 123°57'1 8.9
2017-Jun-20 01:57N 49°12' W 123°56'919.9
2017-Jun-20 01:30N 49°15' W 123°43'1020.0
2017-Jun-20 01:00N 49°18' W 123°29'918.6
2017-Jun-20 00:30N 49°23' W 123°17'0 0.7
2017-Jun-19 23:59N 49°23' W 123°16'815.8
2017-Jun-19 23:30N 49°19' W 123°26'1020.4
2017-Jun-19 23:00N 49°15' W 123°40'11 7.9
2017-Jun-19 21:34N 49°12' W 123°57'518.2
2017-Jun-19 21:19N 49°14' W 123°51'619.7
2017-Jun-19 21:00N 49°16' W 123°42'1020.0
2017-Jun-19 20:30N 49°19' W 123°27'8 6.9
2017-Jun-19 19:19N 49°23' W 123°16'514.6
2017-Jun-19 19:00N 49°20' W 123°21'1020.6
2017-Jun-19 18:30N 49°16' W 123°36'1410.4
2017-Jun-19 17:07N 49°12' W 123°57'516.7
2017-Jun-19 16:50N 49°14' W 123°51'720.0
2017-Jun-19 16:30N 49°17' W 123°42'1020.1
2017-Jun-19 16:00N 49°19' W 123°27'815.1
2017-Jun-19 15:29N 49°23' W 123°16'0 0.4
2017-Jun-19 15:00N 49°23' W 123°16'1817.9
2017-Jun-19 14:00N 49°15' W 123°41'9 1.1
2017-Jun-19 06:08N 49°13' W 123°54'520.8
2017-Jun-19 05:54N 49°15' W 123°47'820.5
2017-Jun-19 05:30N 49°18' W 123°35'1020.1
2017-Jun-19 05:00N 49°21' W 123°20'3 4.8
2017-Jun-19 04:18N 49°23' W 123°16'515.7
2017-Jun-19 04:00N 49°20' W 123°22'1020.3
2017-Jun-19 03:30N 49°17' W 123°36'1420.4
2017-Jun-19 02:50N 49°12' W 123°56'1 2.0
2017-Jun-19 02:21N 49°12' W 123°57'913.1
2017-Jun-19 01:38N 49°16' W 123°45'320.0
2017-Jun-19 01:30N 49°17' W 123°41'1020.3
2017-Jun-19 01:00N 49°19' W 123°26'7 7.1
2017-Jun-18 23:59N 49°23' W 123°16'612.4
2017-Jun-18 23:31N 49°19' W 123°23'1020.4
2017-Jun-18 23:00N 49°16' W 123°38'13 8.8
2017-Jun-18 21:31N 49°12' W 123°57'919.6
2017-Jun-18 21:04N 49°16' W 123°45'219.9
2017-Jun-18 20:59N 49°16' W 123°43'1020.0
2017-Jun-18 20:31N 49°19' W 123°28'917.4
2017-Jun-18 20:00N 49°23' W 123°16'  
Track history (hours):
 
Tides and Currents Weather Stations Pressure Air Temp Water Temp Dewpoint Dewpoint Depression Visibility Wind Speed Wind Dir Waves Ship Positions

Queen Of Cowichan

Last reported at 2017-Jun-28 19:24 UTC. Time now 2017-Jun-28 19:32 UTC.
Position N 49°23' W 123°16'.

Length 139 m.

Type: Passenger vessel. MMSI: 316001251.

Date/timePositionNaut miles runAvg speedWind from/ knotsBaromVisibWave heightAir tempDewpointWater temp
2017-Jun-28 19:24N 49°23' W 123°16'616.3
2017-Jun-28 19:00N 49°19' W 123°24'1020.5
2017-Jun-28 18:30N 49°16' W 123°39'12 9.5
2017-Jun-28 17:11N 49°12' W 123°57'718.7
2017-Jun-28 16:50N 49°15' W 123°48'619.4
2017-Jun-28 16:30N 49°17' W 123°39'1020.2
2017-Jun-28 16:01N 49°19' W 123°24'6 6.0
2017-Jun-28 15:03N 49°23' W 123°16'0 2.9
2017-Jun-28 15:00N 49°23' W 123°16'1817.9
2017-Jun-28 14:00N 49°15' W 123°41'1020.6
2017-Jun-28 13:30N 49°12' W 123°56'1 0.1
2017-Jun-28 06:15N 49°12' W 123°57'518.4
2017-Jun-28 05:57N 49°15' W 123°50'919.8
2017-Jun-28 05:30N 49°17' W 123°37'1020.6
2017-Jun-28 05:00N 49°20' W 123°21'4 8.7
2017-Jun-28 04:30N 49°23' W 123°16'4 7.5
2017-Jun-28 04:01N 49°20' W 123°21'1020.1
2017-Jun-28 03:30N 49°17' W 123°35'13 8.5
2017-Jun-28 02:00N 49°13' W 123°54'1019.6
2017-Jun-28 01:29N 49°17' W 123°39'1020.2
2017-Jun-28 01:00N 49°19' W 123°25'7 5.9
2017-Jun-27 23:51N 49°23' W 123°16'412.6
2017-Jun-27 23:31N 49°20' W 123°21'1020.3
2017-Jun-27 23:00N 49°17' W 123°36'15 9.9
2017-Jun-27 21:30N 49°12' W 123°57'1018.9
2017-Jun-27 20:59N 49°16' W 123°44'919.8
2017-Jun-27 20:31N 49°18' W 123°30'1019.1
2017-Jun-27 20:00N 49°23' W 123°17'1 0.8
2017-Jun-27 19:16N 49°23' W 123°16'517.7
2017-Jun-27 19:00N 49°20' W 123°21'1020.3
2017-Jun-27 18:30N 49°16' W 123°36'8 4.8
2017-Jun-27 16:46N 49°15' W 123°48'518.6
2017-Jun-27 16:30N 49°16' W 123°41'1020.0
2017-Jun-27 16:00N 49°19' W 123°27'8 7.2
2017-Jun-27 14:57N 49°23' W 123°16'1616.9
2017-Jun-27 14:00N 49°16' W 123°38'13 2.2
2017-Jun-27 07:53N 49°12' W 123°57'0 0.2
2017-Jun-27 06:18N 49°12' W 123°57'518.0
2017-Jun-27 06:00N 49°14' W 123°50'918.9
2017-Jun-27 05:30N 49°17' W 123°36'1020.0
2017-Jun-27 05:01N 49°20' W 123°22'5 5.9
2017-Jun-27 04:15N 49°23' W 123°16'2 8.5
2017-Jun-27 04:00N 49°22' W 123°19'1019.2
2017-Jun-27 03:30N 49°17' W 123°32'1620.8
2017-Jun-27 02:45N 49°13' W 123°55'1 1.4
2017-Jun-27 01:51N 49°14' W 123°53'719.5
2017-Jun-27 01:30N 49°16' W 123°44'1019.8
2017-Jun-27 01:00N 49°19' W 123°29'917.7
2017-Jun-27 00:30N 49°23' W 123°17'1 1.6
2017-Jun-26 23:59N 49°23' W 123°16'4 9.5
2017-Jun-26 23:30N 49°20' W 123°21'1020.3
2017-Jun-26 23:01N 49°16' W 123°36'14 9.8
2017-Jun-26 21:32N 49°12' W 123°57'117.8
2017-Jun-26 21:28N 49°13' W 123°56'919.4
2017-Jun-26 21:00N 49°16' W 123°43'1019.7
2017-Jun-26 20:31N 49°18' W 123°28'918.1
2017-Jun-26 20:00N 49°23' W 123°17'1 1.1
2017-Jun-26 19:27N 49°23' W 123°16'4 9.5
2017-Jun-26 19:00N 49°19' W 123°21'1020.4
2017-Jun-26 18:30N 49°16' W 123°36'1121.1
2017-Jun-26 17:57N 49°13' W 123°53'4 5.3
2017-Jun-26 17:17N 49°12' W 123°57'310.1
2017-Jun-26 16:59N 49°13' W 123°54'919.2
2017-Jun-26 16:30N 49°17' W 123°41'1019.8
2017-Jun-26 16:00N 49°19' W 123°26'710.3
2017-Jun-26 15:19N 49°23' W 123°16'0 0.7
2017-Jun-26 15:00N 49°23' W 123°16'917.8
2017-Jun-26 14:30N 49°18' W 123°27'20 2.5
2017-Jun-26 06:16N 49°12' W 123°57'617.9
2017-Jun-26 05:56N 49°15' W 123°49'919.9
2017-Jun-26 05:30N 49°17' W 123°37'1019.8
2017-Jun-26 05:00N 49°20' W 123°22'5 9.5
2017-Jun-26 04:30N 49°23' W 123°16'2 5.1
2017-Jun-26 04:00N 49°21' W 123°20'1019.9
2017-Jun-26 03:30N 49°17' W 123°33'1420.7
2017-Jun-26 02:50N 49°13' W 123°54'3 3.4
2017-Jun-26 02:01N 49°12' W 123°57'0 2.2
2017-Jun-26 02:00N 49°12' W 123°57'917.7
2017-Jun-26 01:30N 49°16' W 123°45'1019.5
2017-Jun-26 01:00N 49°18' W 123°31'918.3
2017-Jun-26 00:30N 49°22' W 123°19'2 2.3
2017-Jun-25 23:46N 49°23' W 123°16'416.4
2017-Jun-25 23:30N 49°20' W 123°21'1020.2
2017-Jun-25 23:00N 49°16' W 123°35'15 9.9
2017-Jun-25 21:29N 49°12' W 123°57'918.8
2017-Jun-25 21:00N 49°16' W 123°45'1019.7
2017-Jun-25 20:30N 49°19' W 123°30'918.9
2017-Jun-25 20:00N 49°23' W 123°18'1 1.7
2017-Jun-25 19:28N 49°23' W 123°16'4 8.3
2017-Jun-25 19:00N 49°20' W 123°21'1020.5
2017-Jun-25 18:30N 49°16' W 123°35'1121.2
2017-Jun-25 18:00N 49°14' W 123°51'4 4.7
2017-Jun-25 17:07N 49°12' W 123°57'318.3
2017-Jun-25 16:57N 49°13' W 123°54'919.2
2017-Jun-25 16:30N 49°17' W 123°41'1019.5
2017-Jun-25 16:00N 49°19' W 123°27'812.2
2017-Jun-25 15:22N 49°23' W 123°16'0 0.0
2017-Jun-25 15:01N 49°23' W 123°16'612.2
2017-Jun-25 14:31N 49°19' W 123°24'2221.0
2017-Jun-25 13:29N 49°13' W 123°56'1 0.2
2017-Jun-25 06:25N 49°12' W 123°57'717.7
2017-Jun-25 06:00N 49°15' W 123°47'1019.6
2017-Jun-25 05:30N 49°18' W 123°33'1019.8
2017-Jun-25 05:00N 49°22' W 123°19'2 2.9
2017-Jun-25 04:22N 49°23' W 123°16'514.3
2017-Jun-25 04:00N 49°19' W 123°22'1020.5
2017-Jun-25 03:30N 49°16' W 123°37'9 5.7
2017-Jun-25 01:53N 49°14' W 123°51'719.1
2017-Jun-25 01:30N 49°17' W 123°41'1020.2
2017-Jun-25 01:00N 49°19' W 123°25'7 7.1
2017-Jun-24 23:59N 49°23' W 123°16'918.2
2017-Jun-24 23:30N 49°18' W 123°28'1020.1
2017-Jun-24 23:00N 49°16' W 123°42'10 8.3
2017-Jun-24 21:46N 49°12' W 123°57'519.5
2017-Jun-24 21:29N 49°14' W 123°50'919.7
2017-Jun-24 21:00N 49°17' W 123°36'1020.3
2017-Jun-24 20:30N 49°20' W 123°21'4 7.7
2017-Jun-24 19:59N 49°23' W 123°16'0 0.0
2017-Jun-24 19:25N 49°23' W 123°16'614.9
2017-Jun-24 19:01N 49°19' W 123°24'1020.1
2017-Jun-24 18:30N 49°15' W 123°38'1020.9
2017-Jun-24 18:00N 49°12' W 123°53'3 2.9
2017-Jun-24 17:06N 49°12' W 123°57'214.0
2017-Jun-24 16:59N 49°13' W 123°55'919.2
2017-Jun-24 16:30N 49°16' W 123°42'1019.8
2017-Jun-24 16:00N 49°19' W 123°28'816.4
2017-Jun-24 15:30N 49°23' W 123°16'0 0.0
2017-Jun-24 14:56N 49°23' W 123°16'1617.1
2017-Jun-24 14:00N 49°16' W 123°38'1121.0
2017-Jun-24 13:29N 49°13' W 123°55'2 0.3
2017-Jun-24 06:34N 49°12' W 123°57'0 4.2
2017-Jun-24 06:28N 49°12' W 123°57'818.5
2017-Jun-24 06:00N 49°16' W 123°46'1019.4
2017-Jun-24 05:30N 49°18' W 123°31'1019.7
2017-Jun-24 05:00N 49°23' W 123°18'1 1.7
2017-Jun-24 04:28N 49°23' W 123°16'714.5
2017-Jun-24 04:00N 49°19' W 123°24'1020.6
2017-Jun-24 03:30N 49°15' W 123°39'1121.1
2017-Jun-24 02:59N 49°13' W 123°56'1 2.5
2017-Jun-24 02:24N 49°12' W 123°57'614.9
2017-Jun-24 01:59N 49°15' W 123°49'918.8
2017-Jun-24 01:30N 49°18' W 123°36'1019.9
2017-Jun-24 01:00N 49°20' W 123°21'4 7.6
2017-Jun-24 00:27N 49°23' W 123°16'0 0.8
2017-Jun-23 23:59N 49°23' W 123°16'817.5
2017-Jun-23 23:30N 49°17' W 123°26'1020.3
2017-Jun-23 23:00N 49°15' W 123°41'1020.6
2017-Jun-23 22:30N 49°12' W 123°56'1 0.7
2017-Jun-23 21:37N 49°12' W 123°57'221.4
2017-Jun-23 21:30N 49°13' W 123°54'918.4
2017-Jun-23 21:00N 49°17' W 123°41'1020.2
2017-Jun-23 20:30N 49°19' W 123°26'7 8.6
2017-Jun-23 19:39N 49°23' W 123°16'0 0.0
2017-Jun-23 19:29N 49°23' W 123°16'510.7
2017-Jun-23 19:00N 49°19' W 123°22'1020.2
2017-Jun-23 18:31N 49°16' W 123°37'1411.1
2017-Jun-23 17:14N 49°12' W 123°57'513.2
2017-Jun-23 16:52N 49°14' W 123°51'718.8
2017-Jun-23 16:30N 49°16' W 123°41'1019.9
2017-Jun-23 16:00N 49°19' W 123°26'710.9
2017-Jun-23 15:19N 49°23' W 123°16'0 0.0
2017-Jun-23 15:00N 49°23' W 123°16'1717.1
2017-Jun-23 14:00N 49°15' W 123°40'12 1.5
2017-Jun-23 06:15N 49°12' W 123°57'514.2
2017-Jun-23 05:54N 49°14' W 123°50'719.3
2017-Jun-23 05:31N 49°17' W 123°40'1020.4
2017-Jun-23 05:00N 49°19' W 123°25'612.1
2017-Jun-23 04:29N 49°23' W 123°16'2 4.4
2017-Jun-23 04:00N 49°22' W 123°19'1019.7
2017-Jun-23 03:31N 49°17' W 123°32'1120.8
2017-Jun-23 02:59N 49°14' W 123°49'6 6.8
2017-Jun-23 02:05N 49°12' W 123°57'315.9
2017-Jun-23 01:53N 49°13' W 123°54'719.0
2017-Jun-23 01:30N 49°16' W 123°43'1019.7
2017-Jun-23 01:00N 49°19' W 123°29'918.0
2017-Jun-23 00:30N 49°23' W 123°16'0 0.1
2017-Jun-22 23:50N 49°23' W 123°16'617.2
2017-Jun-22 23:30N 49°19' W 123°23'1020.5
2017-Jun-22 23:00N 49°16' W 123°37'1120.9
2017-Jun-22 22:30N 49°13' W 123°53'3 3.8
2017-Jun-22 21:40N 49°12' W 123°57'616.5
2017-Jun-22 21:19N 49°14' W 123°49'619.2
2017-Jun-22 21:00N 49°16' W 123°41'1020.4
2017-Jun-22 20:30N 49°19' W 123°26'714.2
2017-Jun-22 20:00N 49°23' W 123°16'0 0.5
2017-Jun-22 19:26N 49°23' W 123°16'717.2
2017-Jun-22 19:00N 49°19' W 123°25'1020.8
2017-Jun-22 18:30N 49°15' W 123°40'1020.6
2017-Jun-22 18:00N 49°13' W 123°56'1 1.4
2017-Jun-22 17:06N 49°12' W 123°57'219.5
2017-Jun-22 16:58N 49°13' W 123°54'818.2
2017-Jun-22 16:30N 49°16' W 123°42'1020.0
2017-Jun-22 16:00N 49°19' W 123°27'8 7.3
2017-Jun-22 14:53N 49°23' W 123°16'616.9
2017-Jun-22 14:30N 49°19' W 123°24'23 6.6
2017-Jun-22 11:01N 49°12' W 123°57'1 0.1
2017-Jun-22 06:08N 49°12' W 123°57'319.1
2017-Jun-22 05:59N 49°13' W 123°53'919.1
2017-Jun-22 05:30N 49°17' W 123°40'1020.1
2017-Jun-22 05:00N 49°19' W 123°26'7 7.9
2017-Jun-22 04:07N 49°23' W 123°16'110.9
2017-Jun-22 04:00N 49°23' W 123°18'1019.9
2017-Jun-22 03:30N 49°17' W 123°31'1121.2
2017-Jun-22 02:58N 49°14' W 123°48'2 1.5
2017-Jun-22 01:34N 49°15' W 123°45'118.5
2017-Jun-22 01:30N 49°16' W 123°43'1019.5
2017-Jun-22 01:00N 49°19' W 123°29'9 8.2
2017-Jun-21 23:52N 49°23' W 123°16'615.9
2017-Jun-21 23:30N 49°19' W 123°23'1020.7
2017-Jun-21 23:00N 49°15' W 123°38'1120.9
2017-Jun-21 22:30N 49°13' W 123°54'2 2.3
2017-Jun-21 21:28N 49°12' W 123°57'919.2
2017-Jun-21 21:00N 49°16' W 123°44'1019.5
2017-Jun-21 20:31N 49°18' W 123°30'918.5
2017-Jun-21 20:00N 49°23' W 123°18'1 1.2
2017-Jun-21 19:15N 49°23' W 123°16'416.2
2017-Jun-21 19:00N 49°20' W 123°21'1020.7
2017-Jun-21 18:30N 49°16' W 123°35'1510.5
2017-Jun-21 17:05N 49°12' W 123°57'518.8
2017-Jun-21 16:49N 49°14' W 123°50'619.2
2017-Jun-21 16:31N 49°16' W 123°41'1019.8
2017-Jun-21 16:00N 49°19' W 123°27'8 7.4
2017-Jun-21 14:56N 49°23' W 123°16'715.2
2017-Jun-21 14:30N 49°18' W 123°24'23 6.6
2017-Jun-21 11:03N 49°12' W 123°57'1 0.3
2017-Jun-21 05:59N 49°12' W 123°56'919.5
2017-Jun-21 05:30N 49°16' W 123°43'1020.3
2017-Jun-21 05:00N 49°19' W 123°27'816.5
2017-Jun-21 04:30N 49°23' W 123°16'1 1.4
2017-Jun-21 04:00N 49°23' W 123°17'1019.6
2017-Jun-21 03:31N 49°17' W 123°29'1020.7
2017-Jun-21 03:00N 49°14' W 123°44'911.6
2017-Jun-21 02:14N 49°12' W 123°57'0 0.2
2017-Jun-21 01:56N 49°12' W 123°57'818.1
2017-Jun-21 01:31N 49°15' W 123°47'1020.1
2017-Jun-21 01:00N 49°18' W 123°32'918.7
2017-Jun-21 00:31N 49°22' W 123°19'2 3.6
2017-Jun-21 00:00N 49°23' W 123°16'3 6.5
2017-Jun-20 23:30N 49°21' W 123°20'1020.5
2017-Jun-20 23:00N 49°16' W 123°34'1020.8
2017-Jun-20 22:30N 49°14' W 123°50'5 5.4
2017-Jun-20 21:31N 49°12' W 123°57'215.1
2017-Jun-20 21:23N 49°13' W 123°55'819.6
2017-Jun-20 21:00N 49°16' W 123°44'1019.9
2017-Jun-20 20:31N 49°18' W 123°30'918.7
2017-Jun-20 20:00N 49°23' W 123°17'1 0.7
2017-Jun-20 19:14N 49°23' W 123°16'416.2
2017-Jun-20 19:01N 49°20' W 123°21'1020.0
2017-Jun-20 18:30N 49°16' W 123°35'1611.0
2017-Jun-20 17:05N 49°12' W 123°57'212.8
2017-Jun-20 16:57N 49°13' W 123°55'920.3
2017-Jun-20 16:30N 49°16' W 123°42'1020.4
2017-Jun-20 16:00N 49°19' W 123°27'8 7.6
2017-Jun-20 14:55N 49°23' W 123°16'716.3
2017-Jun-20 14:31N 49°19' W 123°24'21 2.4
2017-Jun-20 05:55N 49°13' W 123°55'820.4
2017-Jun-20 05:31N 49°16' W 123°43'1020.5
2017-Jun-20 05:00N 49°19' W 123°28'814.7
2017-Jun-20 04:26N 49°23' W 123°16'1 2.4
2017-Jun-20 04:00N 49°23' W 123°18'1019.3
2017-Jun-20 03:30N 49°18' W 123°30'1120.7
2017-Jun-20 02:59N 49°14' W 123°45'8 9.1
2017-Jun-20 02:05N 49°12' W 123°57'1 8.9
2017-Jun-20 01:57N 49°12' W 123°56'919.9
2017-Jun-20 01:30N 49°15' W 123°43'1020.0
2017-Jun-20 01:00N 49°18' W 123°29'918.6
2017-Jun-20 00:30N 49°23' W 123°17'0 0.7
2017-Jun-19 23:59N 49°23' W 123°16'815.8
2017-Jun-19 23:30N 49°19' W 123°26'1020.4
2017-Jun-19 23:00N 49°15' W 123°40'11 7.9
2017-Jun-19 21:34N 49°12' W 123°57'518.2
2017-Jun-19 21:19N 49°14' W 123°51'619.7
2017-Jun-19 21:00N 49°16' W 123°42'1020.0
2017-Jun-19 20:30N 49°19' W 123°27'8 6.9
2017-Jun-19 19:19N 49°23' W 123°16'514.6
2017-Jun-19 19:00N 49°20' W 123°21'1020.6
2017-Jun-19 18:30N 49°16' W 123°36'1410.4
2017-Jun-19 17:07N 49°12' W 123°57'516.7
2017-Jun-19 16:50N 49°14' W 123°51'720.0
2017-Jun-19 16:30N 49°17' W 123°42'1020.1
2017-Jun-19 16:00N 49°19' W 123°27'815.1
2017-Jun-19 15:29N 49°23' W 123°16'0 0.4
2017-Jun-19 15:00N 49°23' W 123°16'1817.9
2017-Jun-19 14:00N 49°15' W 123°41'9 1.1
2017-Jun-19 06:08N 49°13' W 123°54'520.8
2017-Jun-19 05:54N 49°15' W 123°47'820.5
2017-Jun-19 05:30N 49°18' W 123°35'1020.1
2017-Jun-19 05:00N 49°21' W 123°20'3 4.8
2017-Jun-19 04:18N 49°23' W 123°16'515.7
2017-Jun-19 04:00N 49°20' W 123°22'1020.3
2017-Jun-19 03:30N 49°17' W 123°36'1420.4
2017-Jun-19 02:50N 49°12' W 123°56'1 2.0
2017-Jun-19 02:21N 49°12' W 123°57'913.1
2017-Jun-19 01:38N 49°16' W 123°45'320.0
2017-Jun-19 01:30N 49°17' W 123°41'1020.3
2017-Jun-19 01:00N 49°19' W 123°26'7 7.1
2017-Jun-18 23:59N 49°23' W 123°16'612.4
2017-Jun-18 23:31N 49°19' W 123°23'1020.4
2017-Jun-18 23:00N 49°16' W 123°38'13 8.8
2017-Jun-18 21:31N 49°12' W 123°57'919.6
2017-Jun-18 21:04N 49°16' W 123°45'219.9
2017-Jun-18 20:59N 49°16' W 123°43'1020.0
2017-Jun-18 20:31N 49°19' W 123°28'917.4
2017-Jun-18 20:00N 49°23' W 123°16'  

Dump ship's entire track history